createdAt,value
2016-07-17T10:02:42.153Z,25.06
2016-07-17T10:04:25.383Z,25.8
2016-07-17T10:09:15.356Z,22.8
2016-07-17T10:13:34.128Z,22.43
2016-07-17T10:14:44.609Z,22.43
2016-07-17T10:15:55.099Z,22.41
2016-07-17T10:17:05.574Z,22.44
2016-07-17T10:18:16.067Z,22.44
2016-07-17T10:44:06.304Z,22.6
2016-07-17T10:45:16.750Z,22.55
2016-07-17T10:46:52.924Z,22.43
2016-07-17T10:48:03.399Z,22.45
2016-07-17T10:52:02.812Z,22.99
2016-07-17T10:53:13.278Z,23.17
2016-07-17T10:55:49.387Z,23.56
2016-07-17T10:57:11.441Z,23.43
2016-07-17T10:58:55.326Z,23.36
2016-07-17T11:00:05.787Z,23.25
2016-07-17T11:01:44.025Z,23.47
2016-07-17T11:02:54.515Z,23.48
2016-07-17T11:05:11.293Z,24.05
2016-07-17T11:06:21.772Z,23.99
2016-07-17T11:08:32.827Z,24.01
2016-07-17T11:09:43.307Z,23.87
2016-07-17T11:10:53.787Z,23.87
2016-07-17T11:12:04.269Z,23.69
2016-07-17T11:13:14.756Z,23.83
2016-07-17T11:14:59.836Z,23.83
2016-07-17T11:16:10.328Z,23.71
2016-07-17T11:17:20.784Z,23.78
2016-07-17T11:18:31.271Z,23.71
2016-07-17T11:19:41.751Z,23.77
2016-07-17T11:20:52.230Z,24.03
2016-07-17T11:22:02.720Z,24.36
2016-07-17T11:23:13.198Z,24.32
2016-07-17T11:39:20.336Z,24.4
2016-07-17T11:40:30.828Z,24.2
2016-07-17T11:41:41.299Z,24.02
2016-07-17T11:42:51.771Z,23.8
2016-07-17T11:44:02.255Z,23.78
2016-07-17T11:45:12.736Z,23.69
2016-07-17T11:46:23.223Z,23.63
2016-07-17T11:47:33.709Z,23.55
2016-07-17T11:48:44.201Z,23.46
2016-07-17T11:49:54.688Z,23.4
2016-07-17T11:51:05.172Z,23.39
2016-07-17T11:52:15.669Z,23.32
2016-07-17T11:53:26.140Z,23.28
2016-07-17T11:54:36.630Z,23.18
2016-07-17T11:55:47.108Z,23.12
2016-07-17T11:56:57.600Z,23.1
2016-07-17T11:58:08.084Z,23.12
2016-07-17T11:59:18.570Z,23.13
2016-07-17T12:00:29.043Z,23.15
2016-07-17T12:01:39.535Z,23.18
2016-07-17T12:02:50.018Z,23.2
2016-07-17T12:04:00.517Z,23.23
2016-07-17T12:05:10.987Z,23.24
2016-07-17T12:06:21.472Z,23.32
2016-07-17T12:07:31.964Z,23.37
2016-07-17T12:08:42.439Z,23.32
